createdAt,value
2022-12-24T00:00:51.910Z,97546.78
2022-12-24T00:03:22.712Z,97553.34
2022-12-24T00:05:53.003Z,97560.78
2022-12-24T00:08:23.318Z,97566.91
2022-12-24T00:10:54.916Z,97554.25
2022-12-24T00:13:24.963Z,97562.13
2022-12-24T00:15:57.520Z,97551.63
2022-12-24T00:18:27.528Z,97555.88
2022-12-24T00:20:58.271Z,97552.72
2022-12-24T00:23:28.384Z,97556.25
2022-12-24T00:25:58.381Z,97564.81
2022-12-24T00:28:28.451Z,97570.25
2022-12-24T00:31:01.072Z,97567.50
2022-12-24T00:33:31.045Z,97566.13
2022-12-24T00:36:01.161Z,97574.97
2022-12-24T00:38:31.147Z,97574.19
2022-12-24T00:41:03.767Z,97572.69
2022-12-24T00:43:35.058Z,97578.75
2022-12-24T00:46:07.912Z,97582.38
2022-12-24T00:48:37.903Z,97578.06
2022-12-24T00:51:08.564Z,97591.06
2022-12-24T00:53:38.621Z,97588.75
2022-12-24T00:56:10.545Z,97604.16
2022-12-24T00:58:40.703Z,97595.75
2022-12-24T01:01:14.000Z,97595.00
2022-12-24T01:03:44.212Z,97603.75
2022-12-24T01:06:15.153Z,97598.44
2022-12-24T01:08:46.023Z,97603.59
2022-12-24T01:11:16.695Z,97615.31
2022-12-24T01:13:46.725Z,97619.22
2022-12-24T01:16:23.223Z,97622.16
2022-12-24T01:18:53.256Z,97631.94
2022-12-24T01:21:23.776Z,97636.50
2022-12-24T01:23:53.731Z,97641.63
2022-12-24T01:26:23.786Z,97647.09
2022-12-24T01:28:53.752Z,97646.75
2022-12-24T01:31:26.444Z,97656.16
2022-12-24T01:33:56.460Z,97653.78
2022-12-24T01:36:26.483Z,97657.72
2022-12-24T01:38:56.509Z,97643.84
2022-12-24T01:41:40.158Z,97644.84
2022-12-24T01:44:35.760Z,97636.38
2022-12-24T01:47:15.423Z,97638.19
2022-12-24T01:49:50.728Z,97644.44
2022-12-24T01:52:25.634Z,97655.94
2022-12-24T01:55:00.879Z,97673.22
2022-12-24T01:57:37.951Z,97673.28
2022-12-24T02:00:13.321Z,97693.63
2022-12-24T02:02:53.056Z,97705.31
2022-12-24T02:05:32.577Z,97715.94
2022-12-24T02:08:05.397Z,97730.69
2022-12-24T02:10:35.430Z,97737.38
2022-12-24T02:13:07.872Z,97740.63
2022-12-24T02:15:52.167Z,97740.41
2022-12-24T02:18:41.611Z,97738.19
2022-12-24T02:21:41.166Z,97746.78
2022-12-24T02:25:07.099Z,97750.22
2022-12-24T02:27:55.498Z,97727.25
2022-12-24T02:30:39.463Z,97725.78
2022-12-24T02:33:30.100Z,97743.59
2022-12-24T02:36:08.763Z,97752.72
2022-12-24T02:38:48.251Z,97746.94
2022-12-24T02:41:24.710Z,97746.63
2022-12-24T02:44:00.145Z,97734.91
2022-12-24T02:46:35.610Z,97732.53
2022-12-24T02:49:06.988Z,97745.72
2022-12-24T02:51:36.945Z,97757.63
2022-12-24T02:54:07.388Z,97774.34
2022-12-24T02:57:01.722Z,97783.91
2022-12-24T02:59:58.933Z,97779.44
2022-12-24T03:02:55.464Z,97779.56
2022-12-24T03:05:39.753Z,97776.56
2022-12-24T03:08:24.238Z,97767.19
2022-12-24T03:11:00.471Z,97764.47
2022-12-24T03:13:32.160Z,97762.28
2022-12-24T03:16:03.640Z,97775.63
2022-12-24T03:18:36.433Z,97783.50
2022-12-24T03:21:14.866Z,97788.41
2022-12-24T03:23:45.282Z,97785.25
2022-12-24T03:26:19.778Z,97788.41
2022-12-24T03:28:51.704Z,97806.38
2022-12-24T03:31:22.310Z,97814.16
2022-12-24T03:33:55.068Z,97810.22
2022-12-24T03:36:25.524Z,97800.50
2022-12-24T03:38:55.513Z,97796.97
2022-12-24T03:41:25.513Z,97794.81
2022-12-24T03:43:55.567Z,97792.28
2022-12-24T03:46:25.791Z,97804.72
2022-12-24T03:48:58.519Z,97819.03
2022-12-24T03:51:29.762Z,97828.25
2022-12-24T03:54:00.740Z,97828.94
2022-12-24T03:56:30.754Z,97816.53
2022-12-24T03:59:00.753Z,97809.06
2022-12-24T04:01:31.375Z,97806.38
2022-12-24T04:04:04.225Z,97812.34
2022-12-24T04:06:34.265Z,97810.81
2022-12-24T04:09:05.269Z,97808.41
2022-12-24T04:11:35.997Z,97814.50
2022-12-24T04:14:06.365Z,97815.94
2022-12-24T04:16:36.553Z,97825.50
2022-12-24T04:19:09.235Z,97831.56
2022-12-24T04:21:39.358Z,97818.19
2022-12-24T04:24:09.958Z,97810.44
2022-12-24T04:26:39.954Z,97818.06
2022-12-24T04:29:10.303Z,97827.69
2022-12-24T04:31:40.961Z,97825.72
2022-12-24T04:34:13.827Z,97827.19
2022-12-24T04:36:43.905Z,97810.41
2022-12-24T04:39:14.019Z,97808.63
2022-12-24T04:41:44.025Z,97818.16
2022-12-24T04:44:14.330Z,97818.34
2022-12-24T04:46:44.572Z,97816.78
2022-12-24T04:49:17.194Z,97840.16
2022-12-24T04:51:47.207Z,97832.78
2022-12-24T04:54:17.282Z,97827.94
2022-12-24T04:56:47.348Z,97831.81
2022-12-24T04:59:17.352Z,97834.06
2022-12-24T05:01:47.521Z,97844.97
2022-12-24T05:04:20.189Z,97855.16
2022-12-24T05:06:50.210Z,97851.75
2022-12-24T05:09:20.225Z,97850.25
2022-12-24T05:11:50.269Z,97840.81
2022-12-24T05:14:20.339Z,97848.44
2022-12-24T05:16:50.478Z,97846.84
2022-12-24T05:19:23.197Z,97848.31
2022-12-24T05:22:13.348Z,97854.69
2022-12-24T05:24:55.892Z,97874.22
2022-12-24T05:27:25.999Z,97860.38
2022-12-24T05:29:56.101Z,97866.06
2022-12-24T05:32:26.210Z,97863.63
2022-12-24T05:34:58.827Z,97864.06
2022-12-24T05:37:28.893Z,97858.19
2022-12-24T05:39:58.885Z,97866.41
2022-12-24T05:42:29.218Z,97849.13
2022-12-24T05:44:59.271Z,97853.84
2022-12-24T05:47:29.527Z,97870.91
2022-12-24T05:50:02.304Z,97860.63
2022-12-24T05:52:32.325Z,97853.47
2022-12-24T05:55:02.372Z,97865.38
2022-12-24T05:57:32.483Z,97876.78
2022-12-24T06:00:02.550Z,97865.47
2022-12-24T06:02:42.482Z,97868.53
2022-12-24T06:05:15.208Z,97876.69
2022-12-24T06:07:45.394Z,97874.63
2022-12-24T06:10:15.421Z,97863.47
2022-12-24T06:12:45.414Z,97865.47
2022-12-24T06:15:21.899Z,97877.59
2022-12-24T06:17:53.827Z,97872.94
2022-12-24T06:20:26.418Z,97877.94
2022-12-24T06:22:56.425Z,97875.06
2022-12-24T06:25:26.397Z,97881.41
2022-12-24T06:27:56.506Z,97880.28
2022-12-24T06:30:26.991Z,97890.16
2022-12-24T06:32:57.015Z,97885.06
2022-12-24T06:35:30.023Z,97890.94
2022-12-24T06:38:00.315Z,97891.47
2022-12-24T06:40:30.773Z,97897.84
2022-12-24T06:43:00.998Z,97899.94
2022-12-24T06:45:31.009Z,97909.72
2022-12-24T06:48:01.042Z,97922.16
2022-12-24T06:50:33.779Z,97922.41
2022-12-24T06:53:03.937Z,97930.97
2022-12-24T06:55:34.821Z,97936.34
2022-12-24T06:58:04.834Z,97938.25
2022-12-24T07:00:35.160Z,97943.50
2022-12-24T07:03:05.195Z,97945.44
2022-12-24T07:05:37.819Z,97939.91
2022-12-24T07:08:08.285Z,97945.53
2022-12-24T07:10:38.404Z,97952.34
2022-12-24T07:13:08.598Z,97944.13
2022-12-24T07:15:38.659Z,97951.75
2022-12-24T07:18:08.814Z,97955.06
2022-12-24T07:20:41.620Z,97963.34
2022-12-24T07:23:11.801Z,97970.19
2022-12-24T07:25:45.352Z,97970.38
2022-12-24T07:28:15.768Z,97969.16
2022-12-24T07:30:45.839Z,97969.69
2022-12-24T07:33:15.897Z,97976.63
2022-12-24T07:35:53.932Z,97982.63
2022-12-24T07:38:25.779Z,97990.00
2022-12-24T07:40:55.840Z,97986.47
2022-12-24T07:43:26.172Z,97997.81
2022-12-24T07:45:59.297Z,97986.75
2022-12-24T07:48:33.929Z,97977.38
2022-12-24T07:51:07.202Z,97986.16
2022-12-24T07:53:37.332Z,97979.75
2022-12-24T07:56:12.610Z,97986.06
2022-12-24T07:58:43.140Z,97988.94
2022-12-24T08:01:14.037Z,97989.63
2022-12-24T08:03:44.384Z,97990.41
2022-12-24T08:06:17.141Z,98006.69
2022-12-24T08:08:47.386Z,98001.41
2022-12-24T08:11:17.838Z,98003.50
2022-12-24T08:13:48.263Z,98007.50
2022-12-24T08:16:21.444Z,98003.13
2022-12-24T08:18:51.556Z,98002.84
2022-12-24T08:21:24.485Z,97999.63
2022-12-24T08:23:54.779Z,98003.56
2022-12-24T08:26:24.988Z,98004.78
2022-12-24T08:28:55.023Z,98012.75
2022-12-24T08:31:25.236Z,98013.44
2022-12-24T08:33:55.459Z,98014.16
2022-12-24T08:36:28.251Z,98032.47
2022-12-24T08:38:58.289Z,98035.69
2022-12-24T08:41:28.631Z,98035.50
2022-12-24T08:43:58.666Z,98039.78
2022-12-24T08:46:28.903Z,98042.03
2022-12-24T08:48:59.125Z,98048.00
2022-12-24T08:51:31.787Z,98050.09
2022-12-24T08:54:03.784Z,98047.44
2022-12-24T08:56:34.603Z,98051.97
2022-12-24T08:59:05.112Z,98054.44
2022-12-24T09:01:38.200Z,98055.78
2022-12-24T09:04:09.634Z,98066.25
2022-12-24T09:06:42.420Z,98063.19
2022-12-24T09:09:12.691Z,98071.09
2022-12-24T09:11:42.970Z,98066.00
2022-12-24T09:14:13.014Z,98075.47
2022-12-24T09:16:43.084Z,98075.19
2022-12-24T09:19:13.364Z,98073.81
2022-12-24T09:21:46.217Z,98075.69
2022-12-24T09:24:16.231Z,98086.41
2022-12-24T09:26:55.588Z,98084.56
2022-12-24T09:29:27.456Z,98094.53
2022-12-24T09:31:59.199Z,98098.59
2022-12-24T09:34:30.591Z,98094.06
2022-12-24T09:37:03.830Z,98094.28
2022-12-24T09:39:34.083Z,98092.72
2022-12-24T09:42:22.083Z,98095.91
2022-12-24T09:45:03.660Z,98094.22
2022-12-24T09:47:42.381Z,98092.50
2022-12-24T09:50:41.763Z,98090.56
2022-12-24T09:53:24.170Z,98081.91
2022-12-24T09:56:00.011Z,98078.06
2022-12-24T09:58:38.408Z,98087.38
2022-12-24T10:01:09.298Z,98092.28
2022-12-24T10:03:39.876Z,98089.09
2022-12-24T10:06:17.955Z,98093.03
2022-12-24T10:09:13.235Z,98098.88
2022-12-24T10:11:56.927Z,98088.25
2022-12-24T10:14:51.502Z,98083.28
2022-12-24T10:17:49.157Z,98079.56
2022-12-24T10:20:40.750Z,98082.66
2022-12-24T10:23:22.431Z,98082.91
2022-12-24T10:26:08.004Z,98088.78
2022-12-24T10:28:49.427Z,98097.94
2022-12-24T10:31:23.639Z,98096.44
2022-12-24T10:34:01.042Z,98098.69
2022-12-24T10:36:34.103Z,98109.97
2022-12-24T10:39:04.192Z,98108.81
2022-12-24T10:41:39.550Z,98110.69
2022-12-24T10:44:12.920Z,98118.34
2022-12-24T10:46:43.603Z,98109.00
2022-12-24T10:49:19.214Z,98107.06
2022-12-24T10:51:55.329Z,98119.63
2022-12-24T10:54:28.177Z,98114.09
2022-12-24T10:57:05.196Z,98112.88
2022-12-24T10:59:45.787Z,98119.31
2022-12-24T11:02:32.024Z,98119.75
2022-12-24T11:05:04.475Z,98124.53
2022-12-24T11:07:36.441Z,98118.13
2022-12-24T11:10:10.936Z,98112.13
2022-12-24T11:13:12.870Z,98105.25
2022-12-24T11:15:42.469Z,98097.19
2022-12-24T11:18:18.592Z,98107.47
2022-12-24T11:20:55.314Z,98106.63
2022-12-24T11:23:25.639Z,98111.63
2022-12-24T11:25:58.591Z,98106.03
2022-12-24T11:28:34.586Z,98101.09
2022-12-24T11:31:09.880Z,98112.75
2022-12-24T11:33:51.470Z,98106.53
2022-12-24T11:36:27.920Z,98108.59
2022-12-24T11:39:01.170Z,98096.03
2022-12-24T11:41:42.745Z,98105.88
2022-12-24T11:44:15.675Z,98103.47
2022-12-24T11:46:52.357Z,98101.88
2022-12-24T11:49:30.049Z,98095.22
2022-12-24T11:52:25.513Z,98100.56
2022-12-24T11:55:19.300Z,98088.31
2022-12-24T11:58:01.720Z,98098.94
2022-12-24T12:00:34.498Z,98096.06
2022-12-24T12:03:07.178Z,98101.28
2022-12-24T12:05:43.660Z,98099.03
2022-12-24T12:08:21.298Z,98091.31
2022-12-24T12:10:56.012Z,98101.09
2022-12-24T12:13:33.599Z,98095.59
2022-12-24T12:16:21.427Z,98093.47
2022-12-24T12:18:59.831Z,98084.81
2022-12-24T12:21:41.561Z,98077.91
2022-12-24T12:24:28.246Z,98077.31
2022-12-24T12:27:16.324Z,98079.75
2022-12-24T12:29:59.718Z,98084.25
2022-12-24T12:32:49.227Z,98080.16
2022-12-24T12:35:27.894Z,98079.84
2022-12-24T12:38:01.415Z,98083.78
2022-12-24T12:41:06.943Z,98087.84
2022-12-24T12:44:06.731Z,98086.00
2022-12-24T12:46:58.204Z,98100.31
2022-12-24T12:49:46.535Z,98099.56
2022-12-24T12:52:34.437Z,98105.09
2022-12-24T12:55:26.188Z,98104.31
2022-12-24T12:58:03.958Z,98105.50
2022-12-24T13:00:41.388Z,98098.06
2022-12-24T13:04:01.582Z,98100.50
2022-12-24T13:07:11.299Z,98102.41
2022-12-24T13:10:11.703Z,98105.03
2022-12-24T13:13:13.003Z,98115.41
2022-12-24T13:16:40.070Z,98102.00
2022-12-24T13:19:25.726Z,98103.16
2022-12-24T13:22:00.144Z,98093.56
2022-12-24T13:24:32.882Z,98102.00
2022-12-24T13:27:07.202Z,98097.75
2022-12-24T13:29:47.404Z,98102.25
2022-12-24T13:32:48.806Z,98098.75
2022-12-24T13:36:02.095Z,98092.28
2022-12-24T13:38:45.331Z,98110.22
2022-12-24T13:41:55.428Z,98108.66
2022-12-24T13:44:36.190Z,98100.41
2022-12-24T13:47:32.338Z,98096.66
2022-12-24T13:50:25.199Z,98096.03
2022-12-24T13:52:57.268Z,98100.16
2022-12-24T13:55:30.832Z,98113.13
2022-12-24T13:58:04.017Z,98107.84
2022-12-24T14:00:41.887Z,98101.75
2022-12-24T14:03:33.323Z,98105.91
2022-12-24T14:06:10.170Z,98096.84
2022-12-24T14:08:46.734Z,98093.88
2022-12-24T14:11:23.347Z,98094.66
2022-12-24T14:14:29.544Z,98086.19
2022-12-24T14:17:04.347Z,98086.56
2022-12-24T14:19:47.602Z,98083.78
2022-12-24T14:22:30.712Z,98083.63
2022-12-24T14:25:04.288Z,98081.06
2022-12-24T14:27:47.436Z,98079.88
2022-12-24T14:30:24.386Z,98069.69
2022-12-24T14:32:55.850Z,98065.38
2022-12-24T14:35:30.498Z,98066.59
2022-12-24T14:38:04.774Z,98072.06
2022-12-24T14:40:41.473Z,98088.38
2022-12-24T14:43:27.856Z,98092.09
2022-12-24T14:46:15.022Z,98091.13
2022-12-24T14:48:55.307Z,98077.97
2022-12-24T14:51:36.433Z,98076.97
2022-12-24T14:54:29.697Z,98072.63
2022-12-24T14:57:22.330Z,98081.41
2022-12-24T14:59:58.316Z,98101.00
2022-12-24T15:02:41.496Z,98107.81
2022-12-24T15:05:19.692Z,98092.50
2022-12-24T15:08:01.749Z,98098.53
2022-12-24T15:10:36.130Z,98106.69
2022-12-24T15:13:09.971Z,98107.00
2022-12-24T15:15:52.592Z,98107.13
2022-12-24T15:18:29.382Z,98099.00
2022-12-24T15:21:04.885Z,98096.03
2022-12-24T15:23:38.301Z,98101.25
2022-12-24T15:26:24.020Z,98100.03
2022-12-24T15:29:02.302Z,98114.09
2022-12-24T15:31:36.387Z,98121.50
2022-12-24T15:34:06.466Z,98113.25
2022-12-24T15:36:38.943Z,98118.34
2022-12-24T15:39:16.857Z,98127.34
2022-12-24T15:42:00.892Z,98124.53
2022-12-24T15:44:37.035Z,98134.72
2022-12-24T15:47:19.128Z,98140.97
2022-12-24T15:49:55.082Z,98140.19
2022-12-24T15:52:28.087Z,98142.09
2022-12-24T15:54:58.651Z,98142.91
2022-12-24T15:57:34.445Z,98143.44
2022-12-24T16:00:07.584Z,98144.41
2022-12-24T16:02:43.429Z,98142.41
2022-12-24T16:05:35.829Z,98137.88
2022-12-24T16:08:25.799Z,98137.13
2022-12-24T16:11:12.589Z,98140.66
2022-12-24T16:13:46.141Z,98139.31
2022-12-24T16:16:19.636Z,98143.25
2022-12-24T16:18:57.923Z,98139.72
2022-12-24T16:21:32.753Z,98140.53
2022-12-24T16:24:15.612Z,98135.47
2022-12-24T16:26:45.700Z,98138.94
2022-12-24T16:29:15.968Z,98140.88
2022-12-24T16:31:52.659Z,98151.06
2022-12-24T16:34:29.244Z,98150.00
2022-12-24T16:37:01.402Z,98148.22
2022-12-24T16:39:36.135Z,98151.47
2022-12-24T16:42:20.285Z,98144.66
2022-12-24T16:44:51.931Z,98166.72
2022-12-24T16:47:25.534Z,98171.50
2022-12-24T16:50:00.049Z,98174.56
2022-12-24T16:52:34.821Z,98177.84
2022-12-24T16:55:05.461Z,98176.03
2022-12-24T16:57:36.877Z,98176.75
2022-12-24T17:00:10.291Z,98186.31
2022-12-24T17:02:42.252Z,98183.16
2022-12-24T17:05:16.385Z,98184.13
2022-12-24T17:07:46.471Z,98187.28
2022-12-24T17:10:17.437Z,98193.94
2022-12-24T17:12:47.554Z,98198.16
2022-12-24T17:15:17.587Z,98199.56
2022-12-24T17:17:47.677Z,98201.31
2022-12-24T17:20:24.333Z,98192.50
2022-12-24T17:22:55.087Z,98193.94
2022-12-24T17:25:26.300Z,98201.22
2022-12-24T17:27:56.331Z,98203.69
2022-12-24T17:30:26.371Z,98197.97
2022-12-24T17:32:56.372Z,98200.03
2022-12-24T17:35:29.011Z,98205.19
2022-12-24T17:37:59.041Z,98205.00
2022-12-24T17:40:29.108Z,98217.38
2022-12-24T17:42:59.489Z,98215.06
2022-12-24T17:45:29.812Z,98217.50
2022-12-24T17:47:59.899Z,98219.41
2022-12-24T17:50:32.542Z,98222.13
2022-12-24T17:53:02.573Z,98231.81
2022-12-24T17:55:32.753Z,98232.22
2022-12-24T17:58:02.786Z,98220.88
2022-12-24T18:00:33.554Z,98234.22
2022-12-24T18:03:04.040Z,98230.91
2022-12-24T18:05:38.065Z,98234.31
2022-12-24T18:08:09.202Z,98232.59
2022-12-24T18:10:39.345Z,98236.84
2022-12-24T18:13:14.032Z,98232.19
2022-12-24T18:15:49.088Z,98229.00
2022-12-24T18:18:19.433Z,98233.16
2022-12-24T18:20:52.692Z,98227.50
2022-12-24T18:23:22.703Z,98223.50
2022-12-24T18:25:52.772Z,98220.19
2022-12-24T18:28:22.797Z,98223.81
2022-12-24T18:31:01.365Z,98220.84
2022-12-24T18:33:32.164Z,98226.94
2022-12-24T18:36:05.514Z,98224.53
2022-12-24T18:38:36.606Z,98224.16
2022-12-24T18:41:08.276Z,98226.13
2022-12-24T18:43:39.007Z,98230.06
2022-12-24T18:46:14.850Z,98232.34
2022-12-24T18:48:45.066Z,98232.03
2022-12-24T18:51:18.671Z,98234.00
2022-12-24T18:53:48.892Z,98227.31
2022-12-24T18:56:22.468Z,98229.25
2022-12-24T18:58:56.033Z,98225.25
2022-12-24T19:01:29.415Z,98224.94
2022-12-24T19:04:00.498Z,98227.41
2022-12-24T19:06:33.538Z,98214.88
2022-12-24T19:09:03.609Z,98222.63
2022-12-24T19:11:36.717Z,98226.91
2022-12-24T19:14:09.404Z,98235.88
2022-12-24T19:16:41.516Z,98234.13
2022-12-24T19:19:14.338Z,98232.38
2022-12-24T19:21:46.943Z,98229.72
2022-12-24T19:24:16.927Z,98231.28
2022-12-24T19:26:48.741Z,98226.56
2022-12-24T19:29:19.688Z,98233.31
2022-12-24T19:31:49.882Z,98237.56
2022-12-24T19:34:20.028Z,98232.22
2022-12-24T19:36:52.670Z,98226.34
2022-12-24T19:39:28.207Z,98226.34
2022-12-24T19:42:02.135Z,98232.81
2022-12-24T19:44:32.596Z,98229.47
2022-12-24T19:47:02.730Z,98228.88
2022-12-24T19:49:32.891Z,98218.03
2022-12-24T19:52:05.570Z,98221.59
2022-12-24T19:54:35.727Z,98228.63
2022-12-24T19:57:05.866Z,98229.84
2022-12-24T19:59:36.027Z,98237.22
2022-12-24T20:02:06.437Z,98241.34
2022-12-24T20:04:36.633Z,98244.50
2022-12-24T20:07:09.403Z,98249.41
2022-12-24T20:09:39.505Z,98261.00
2022-12-24T20:12:10.363Z,98263.81
2022-12-24T20:14:40.376Z,98265.63
2022-12-24T20:17:10.577Z,98269.03
2022-12-24T20:19:40.982Z,98275.72
2022-12-24T20:22:13.604Z,98284.66
2022-12-24T20:24:43.610Z,98284.16
2022-12-24T20:27:13.616Z,98295.53
2022-12-24T20:29:43.602Z,98290.09
2022-12-24T20:32:13.667Z,98294.69
2022-12-24T20:34:43.770Z,98285.19
2022-12-24T20:37:16.369Z,98293.78
2022-12-24T20:39:46.533Z,98295.00
2022-12-24T20:42:16.545Z,98295.28
2022-12-24T20:44:46.593Z,98294.03
2022-12-24T20:47:16.639Z,98289.91
2022-12-24T20:49:46.703Z,98286.66
2022-12-24T20:52:19.366Z,98287.16
2022-12-24T20:54:49.491Z,98288.75
2022-12-24T20:57:25.975Z,98295.66
2022-12-24T21:00:00.490Z,98298.97
2022-12-24T21:02:30.643Z,98293.56
2022-12-24T21:05:02.587Z,98302.84
2022-12-24T21:07:35.601Z,98305.53
2022-12-24T21:10:05.779Z,98304.97
2022-12-24T21:12:48.307Z,98293.66
2022-12-24T21:15:19.287Z,98293.16
2022-12-24T21:17:50.557Z,98289.28
2022-12-24T21:20:21.744Z,98294.38
2022-12-24T21:23:00.425Z,98291.63
2022-12-24T21:25:31.491Z,98291.91
2022-12-24T21:28:01.666Z,98298.66
2022-12-24T21:30:32.312Z,98305.31
2022-12-24T21:33:02.352Z,98305.31
2022-12-24T21:35:32.458Z,98310.03
2022-12-24T21:38:05.041Z,98305.81
2022-12-24T21:40:35.085Z,98306.88
2022-12-24T21:43:05.371Z,98313.22
2022-12-24T21:45:35.498Z,98311.94
2022-12-24T21:48:25.668Z,98319.22
2022-12-24T21:50:55.978Z,98313.91
2022-12-24T21:53:41.077Z,98317.50
2022-12-24T21:56:13.309Z,98317.56
2022-12-24T21:58:40.753Z,98318.13
2022-12-24T22:01:11.918Z,98324.31
2022-12-24T22:03:42.201Z,98331.66
2022-12-24T22:06:35.024Z,98337.56
2022-12-24T22:09:20.167Z,98332.72
2022-12-24T22:11:54.352Z,98337.78
2022-12-24T22:14:24.721Z,98345.41
2022-12-24T22:16:54.850Z,98334.91
2022-12-24T22:19:24.855Z,98329.88
2022-12-24T22:21:54.887Z,98332.13
2022-12-24T22:24:27.980Z,98324.81
2022-12-24T22:26:57.988Z,98319.06
2022-12-24T22:29:28.383Z,98303.72
2022-12-24T22:31:58.435Z,98297.84
2022-12-24T22:34:28.659Z,98283.69
2022-12-24T22:36:58.680Z,98276.41
2022-12-24T22:39:31.456Z,98266.66
2022-12-24T22:42:01.561Z,98265.59
2022-12-24T22:44:31.757Z,98258.06
2022-12-24T22:47:02.926Z,98259.38
2022-12-24T22:49:33.687Z,98261.94
2022-12-24T22:52:03.691Z,98250.69
2022-12-24T22:54:36.910Z,98252.94
2022-12-24T22:57:07.120Z,98250.50
2022-12-24T22:59:37.225Z,98239.28
2022-12-24T23:02:09.322Z,98248.06
2022-12-24T23:04:40.275Z,98240.25
2022-12-24T23:07:13.850Z,98248.50
2022-12-24T23:09:46.521Z,98252.69
2022-12-24T23:12:36.591Z,98254.31
2022-12-24T23:15:04.823Z,98256.56
2022-12-24T23:17:34.934Z,98253.56
2022-12-24T23:20:05.997Z,98254.22
2022-12-24T23:22:36.142Z,98256.56
2022-12-24T23:25:09.598Z,98254.34
2022-12-24T23:27:39.717Z,98253.44
2022-12-24T23:30:12.231Z,98240.06
2022-12-24T23:32:42.679Z,98246.00
2022-12-24T23:35:13.017Z,98244.75
2022-12-24T23:37:43.230Z,98242.97
2022-12-24T23:40:16.762Z,98253.28
2022-12-24T23:42:46.840Z,98244.44
2022-12-24T23:45:16.940Z,98247.09
2022-12-24T23:47:46.973Z,98245.94
2022-12-24T23:50:16.975Z,98247.03
2022-12-24T23:52:46.987Z,98240.25
2022-12-24T23:55:20.168Z,98234.66
2022-12-24T23:57:50.239Z,98238.25
